sensor_id;sensor_type;location;lat;lon;timestamp;pressure;altitude;pressure_sealevel;temperature;humidity
34081;BME280;20358;50.272;19.026;2023-02-14T00:01:06;100056.44;;;2.01;67.50
34081;BME280;20358;50.272;19.026;2023-02-14T00:04:14;100052.97;;;2.00;66.63
34081;BME280;20358;50.272;19.026;2023-02-14T00:07:21;100052.16;;;1.97;67.10
34081;BME280;20358;50.272;19.026;2023-02-14T00:10:27;100045.28;;;1.90;66.62
34081;BME280;20358;50.272;19.026;2023-02-14T00:13:35;100047.00;;;1.91;67.16
34081;BME280;20358;50.272;19.026;2023-02-14T00:16:42;100044.41;;;1.88;67.12
34081;BME280;20358;50.272;19.026;2023-02-14T00:19:45;100040.94;;;1.87;67.22
34081;BME280;20358;50.272;19.026;2023-02-14T00:22:52;100049.66;;;1.86;67.70
34081;BME280;20358;50.272;19.026;2023-02-14T00:25:58;100040.09;;;1.85;66.86
34081;BME280;20358;50.272;19.026;2023-02-14T00:29:09;99829.94;;;0.57;67.07
34081;BME280;20358;50.272;19.026;2023-02-14T00:32:17;100041.81;;;1.88;67.25
34081;BME280;20358;50.272;19.026;2023-02-14T00:35:23;100045.28;;;1.90;66.91
34081;BME280;20358;50.272;19.026;2023-02-14T00:38:29;100045.22;;;1.93;66.84
34081;BME280;20358;50.272;19.026;2023-02-14T00:41:35;100047.06;;;1.84;66.48
34081;BME280;20358;50.272;19.026;2023-02-14T00:44:44;100054.13;;;1.76;65.95
34081;BME280;20358;50.272;19.026;2023-02-14T00:47:50;100054.16;;;1.73;66.01
34081;BME280;20358;50.272;19.026;2023-02-14T00:50:56;100051.63;;;1.67;66.22
34081;BME280;20358;50.272;19.026;2023-02-14T00:54:03;100054.19;;;1.70;66.43
34081;BME280;20358;50.272;19.026;2023-02-14T00:57:09;100059.44;;;1.67;66.13
34081;BME280;20358;50.272;19.026;2023-02-14T01:00:18;100054.22;;;1.67;67.55
34081;BME280;20358;50.272;19.026;2023-02-14T01:03:25;99978.34;;;1.23;67.94
34081;BME280;20358;50.272;19.026;2023-02-14T01:06:31;100052.50;;;1.68;66.78
34081;BME280;20358;50.272;19.026;2023-02-14T01:09:37;100038.72;;;1.58;67.61
34081;BME280;20358;50.272;19.026;2023-02-14T01:12:44;100042.22;;;1.54;68.37
34081;BME280;20358;50.272;19.026;2023-02-14T01:15:52;100031.03;;;1.48;68.32
34081;BME280;20358;50.272;19.026;2023-02-14T01:18:59;100035.41;;;1.44;67.73
34081;BME280;20358;50.272;19.026;2023-02-14T01:22:05;100029.41;;;1.36;67.79
34081;BME280;20358;50.272;19.026;2023-02-14T01:25:11;100028.59;;;1.31;68.35
34081;BME280;20358;50.272;19.026;2023-02-14T01:28:16;100021.63;;;1.33;69.16
34081;BME280;20358;50.272;19.026;2023-02-14T01:31:28;99970.84;;;0.94;68.67
34081;BME280;20358;50.272;19.026;2023-02-14T01:34:34;100025.94;;;1.37;67.88
34081;BME280;20358;50.272;19.026;2023-02-14T01:37:41;100019.81;;;1.41;68.69
34081;BME280;20358;50.272;19.026;2023-02-14T01:40:47;100023.25;;;1.43;68.37
34081;BME280;20358;50.272;19.026;2023-02-14T01:43:59;100021.59;;;1.36;69.00
34081;BME280;20358;50.272;19.026;2023-02-14T01:47:10;100019.06;;;1.32;68.54
34081;BME280;20358;50.272;19.026;2023-02-14T01:50:21;100022.47;;;1.35;68.33
34081;BME280;20358;50.272;19.026;2023-02-14T01:53:31;100015.53;;;1.37;68.44
34081;BME280;20358;50.272;19.026;2023-02-14T01:56:42;100016.34;;;1.42;68.06
34081;BME280;20358;50.272;19.026;2023-02-14T01:59:56;100019.84;;;1.40;67.52
34081;BME280;20358;50.272;19.026;2023-02-14T02:03:31;100015.47;;;1.42;68.41
34081;BME280;20358;50.272;19.026;2023-02-14T02:06:45;100013.72;;;1.42;68.35
34081;BME280;20358;50.272;19.026;2023-02-14T02:10:00;100023.25;;;1.43;67.51
34081;BME280;20358;50.272;19.026;2023-02-14T02:13:15;100009.38;;;1.41;67.12
34081;BME280;20358;50.272;19.026;2023-02-14T02:16:38;100007.63;;;1.43;67.88
34081;BME280;20358;50.272;19.026;2023-02-14T02:20:23;100010.16;;;1.49;67.76
34081;BME280;20358;50.272;19.026;2023-02-14T02:24:20;100007.50;;;1.55;66.79
34081;BME280;20358;50.272;19.026;2023-02-14T02:27:57;100007.44;;;1.60;66.69
34081;BME280;20358;50.272;19.026;2023-02-14T02:35:34;100017.97;;;1.49;67.74
34081;BME280;20358;50.272;19.026;2023-02-14T02:39:06;100016.22;;;1.51;66.48
34081;BME280;20358;50.272;19.026;2023-02-14T02:42:33;100022.31;;;1.49;67.03
34081;BME280;20358;50.272;19.026;2023-02-14T02:45:58;100017.91;;;1.55;66.78
34081;BME280;20358;50.272;19.026;2023-02-14T02:49:34;100024.84;;;1.58;67.03
34081;BME280;20358;50.272;19.026;2023-02-14T02:53:16;100021.34;;;1.60;67.30
34081;BME280;20358;50.272;19.026;2023-02-14T02:56:34;100016.13;;;1.60;66.11
34081;BME280;20358;50.272;19.026;2023-02-14T02:59:55;100023.09;;;1.58;66.56
34081;BME280;20358;50.272;19.026;2023-02-14T03:03:05;100017.81;;;1.61;66.86
34081;BME280;20358;50.272;19.026;2023-02-14T03:06:29;99929.97;;;1.07;66.23
34081;BME280;20358;50.272;19.026;2023-02-14T03:09:56;100015.28;;;1.57;65.74
34081;BME280;20358;50.272;19.026;2023-02-14T03:13:39;100004.06;;;1.52;66.45
34081;BME280;20358;50.272;19.026;2023-02-14T03:17:06;100014.47;;;1.52;65.87
34081;BME280;20358;50.272;19.026;2023-02-14T03:20:22;100002.34;;;1.49;65.56
34081;BME280;20358;50.272;19.026;2023-02-14T03:23:38;100018.03;;;1.43;66.08
34081;BME280;20358;50.272;19.026;2023-02-14T03:27:00;100006.81;;;1.40;67.46
34081;BME280;20358;50.272;19.026;2023-02-14T03:30:19;100013.69;;;1.44;66.86
34081;BME280;20358;50.272;19.026;2023-02-14T03:33:42;100016.41;;;1.33;66.03
34081;BME280;20358;50.272;19.026;2023-02-14T03:36:59;100013.78;;;1.38;66.19
34081;BME280;20358;50.272;19.026;2023-02-14T03:40:15;100020.69;;;1.39;66.14
34081;BME280;20358;50.272;19.026;2023-02-14T03:43:35;100014.66;;;1.35;65.92
34081;BME280;20358;50.272;19.026;2023-02-14T03:46:47;100014.69;;;1.34;66.76
34081;BME280;20358;50.272;19.026;2023-02-14T03:50:03;100022.53;;;1.32;66.20
34081;BME280;20358;50.272;19.026;2023-02-14T03:53:19;100027.69;;;1.34;66.74
34081;BME280;20358;50.272;19.026;2023-02-14T03:56:35;100016.47;;;1.29;66.11
34081;BME280;20358;50.272;19.026;2023-02-14T03:59:47;100019.94;;;1.29;67.11
34081;BME280;20358;50.272;19.026;2023-02-14T04:03:00;100018.28;;;1.22;65.86
34081;BME280;20358;50.272;19.026;2023-02-14T04:06:15;100023.53;;;1.19;66.38
34081;BME280;20358;50.272;19.026;2023-02-14T04:09:22;100027.88;;;1.18;66.14
34081;BME280;20358;50.272;19.026;2023-02-14T04:12:28;100024.41;;;1.16;66.54
34081;BME280;20358;50.272;19.026;2023-02-14T04:15:42;100021.78;;;1.18;66.12
34081;BME280;20358;50.272;19.026;2023-02-14T04:18:48;100018.34;;;1.16;66.89
34081;BME280;20358;50.272;19.026;2023-02-14T04:22:10;100021.81;;;1.15;65.84
34081;BME280;20358;50.272;19.026;2023-02-14T04:25:16;100016.63;;;1.12;67.01
34081;BME280;20358;50.272;19.026;2023-02-14T04:28:22;100020.16;;;1.08;65.90
34081;BME280;20358;50.272;19.026;2023-02-14T04:31:30;100015.81;;;1.11;66.47
34081;BME280;20358;50.272;19.026;2023-02-14T04:34:37;100023.63;;;1.07;67.18
34081;BME280;20358;50.272;19.026;2023-02-14T04:37:43;100021.81;;;1.15;66.11
34081;BME280;20358;50.272;19.026;2023-02-14T04:40:51;100026.97;;;1.21;66.23
34081;BME280;20358;50.272;19.026;2023-02-14T04:43:56;100025.31;;;1.14;66.74
34081;BME280;20358;50.272;19.026;2023-02-14T04:47:06;100000.31;;;0.96;65.94
34081;BME280;20358;50.272;19.026;2023-02-14T04:50:13;100014.16;;;1.00;66.99
34081;BME280;20358;50.272;19.026;2023-02-14T04:53:20;100035.78;;;1.05;66.36
34081;BME280;20358;50.272;19.026;2023-02-14T04:56:26;100026.28;;;1.02;66.36
34081;BME280;20358;50.272;19.026;2023-02-14T04:59:32;100018.53;;;0.98;66.03
34081;BME280;20358;50.272;19.026;2023-02-14T05:02:41;100027.28;;;0.88;67.10
34081;BME280;20358;50.272;19.026;2023-02-14T05:05:47;100027.31;;;0.85;66.94
34081;BME280;20358;50.272;19.026;2023-02-14T05:08:52;100028.97;;;0.95;65.80
34081;BME280;20358;50.272;19.026;2023-02-14T05:11:59;100032.34;;;1.03;67.08
34081;BME280;20358;50.272;19.026;2023-02-14T05:15:05;100030.56;;;1.08;65.91
34081;BME280;20358;50.272;19.026;2023-02-14T05:18:14;100029.63;;;1.16;66.77
34081;BME280;20358;50.272;19.026;2023-02-14T05:21:19;100042.72;;;1.09;65.59
34081;BME280;20358;50.272;19.026;2023-02-14T05:24:26;100037.50;;;1.09;65.68
34081;BME280;20358;50.272;19.026;2023-02-14T05:27:31;100040.13;;;1.04;66.10
34081;BME280;20358;50.272;19.026;2023-02-14T05:30:38;100045.22;;;1.15;66.26
34081;BME280;20358;50.272;19.026;2023-02-14T05:33:46;100045.22;;;1.19;65.38
34081;BME280;20358;50.272;19.026;2023-02-14T05:36:53;99986.53;;;0.87;66.48
34081;BME280;20358;50.272;19.026;2023-02-14T05:39:58;100046.06;;;1.17;66.59
34081;BME280;20358;50.272;19.026;2023-02-14T05:43:06;100041.84;;;1.08;66.31
34081;BME280;20358;50.272;19.026;2023-02-14T05:46:11;100051.28;;;1.17;65.45
34081;BME280;20358;50.272;19.026;2023-02-14T05:49:20;100046.06;;;1.17;65.61
34081;BME280;20358;50.272;19.026;2023-02-14T05:52:26;100051.19;;;1.26;65.80
34081;BME280;20358;50.272;19.026;2023-02-14T05:55:33;100050.22;;;1.36;65.37
34081;BME280;20358;50.272;19.026;2023-02-14T05:58:38;100050.19;;;1.42;65.17
34081;BME280;20358;50.272;19.026;2023-02-14T06:01:45;100057.00;;;1.51;65.81
34081;BME280;20358;50.272;19.026;2023-02-14T06:04:53;100057.88;;;1.51;64.81
34081;BME280;20358;50.272;19.026;2023-02-14T06:08:00;100057.97;;;1.45;65.79
34081;BME280;20358;50.272;19.026;2023-02-14T06:11:06;100060.50;;;1.48;64.86
34081;BME280;20358;50.272;19.026;2023-02-14T06:14:12;100069.22;;;1.47;64.80
34081;BME280;20358;50.272;19.026;2023-02-14T06:17:18;100070.06;;;1.49;65.61
34081;BME280;20358;50.272;19.026;2023-02-14T06:20:27;100078.78;;;1.45;65.57
34081;BME280;20358;50.272;19.026;2023-02-14T06:23:33;100084.81;;;1.50;65.88
34081;BME280;20358;50.272;19.026;2023-02-14T06:26:40;100070.06;;;1.49;65.40
34081;BME280;20358;50.272;19.026;2023-02-14T06:29:45;100075.19;;;1.58;65.47
34081;BME280;20358;50.272;19.026;2023-02-14T06:32:52;100065.56;;;1.62;64.84
34081;BME280;20358;50.272;19.026;2023-02-14T06:36:00;100071.75;;;1.53;65.35
34081;BME280;20358;50.272;19.026;2023-02-14T06:39:07;100070.88;;;1.54;64.11
34081;BME280;20358;50.272;19.026;2023-02-14T06:42:12;100080.47;;;1.49;65.06
34081;BME280;20358;50.272;19.026;2023-02-14T06:45:18;100070.97;;;1.44;65.88
34081;BME280;20358;50.272;19.026;2023-02-14T06:48:24;100081.41;;;1.41;65.90
34081;BME280;20358;50.272;19.026;2023-02-14T06:51:33;100096.94;;;1.51;65.36
34081;BME280;20358;50.272;19.026;2023-02-14T06:54:38;100084.84;;;1.46;64.13
34081;BME280;20358;50.272;19.026;2023-02-14T06:57:45;100081.34;;;1.50;65.69
34081;BME280;20358;50.272;19.026;2023-02-14T07:00:50;100082.22;;;1.50;65.10
34081;BME280;20358;50.272;19.026;2023-02-14T07:03:59;100086.50;;;1.51;65.37
34081;BME280;20358;50.272;19.026;2023-02-14T07:07:07;100082.19;;;1.53;64.63
34081;BME280;20358;50.272;19.026;2023-02-14T07:10:14;100094.31;;;1.51;65.21
34081;BME280;20358;50.272;19.026;2023-02-14T07:13:20;100086.50;;;1.56;64.03
34081;BME280;20358;50.272;19.026;2023-02-14T07:16:26;100092.53;;;1.56;64.71
34081;BME280;20358;50.272;19.026;2023-02-14T07:19:32;100102.88;;;1.65;64.54
34081;BME280;20358;50.272;19.026;2023-02-14T07:22:41;100089.03;;;1.60;63.60
34081;BME280;20358;50.272;19.026;2023-02-14T07:25:46;100090.81;;;1.55;65.00
34081;BME280;20358;50.272;19.026;2023-02-14T07:28:53;100099.50;;;1.54;64.48
34081;BME280;20358;50.272;19.026;2023-02-14T07:31:59;100094.31;;;1.51;64.75
34081;BME280;20358;50.272;19.026;2023-02-14T07:35:06;100076.19;;;1.45;64.26
34081;BME280;20358;50.272;19.026;2023-02-14T07:38:17;100097.69;;;1.62;64.15
34081;BME280;20358;50.272;19.026;2023-02-14T07:41:24;100090.66;;;1.69;64.51
34081;BME280;20358;50.272;19.026;2023-02-14T07:44:29;100098.56;;;1.63;64.57
34081;BME280;20358;50.272;19.026;2023-02-14T07:47:36;100094.94;;;1.76;64.50
34081;BME280;20358;50.272;19.026;2023-02-14T07:50:41;100094.16;;;1.66;64.08
34081;BME280;20358;50.272;19.026;2023-02-14T07:53:50;100096.72;;;1.71;63.74
34081;BME280;20358;50.272;19.026;2023-02-14T07:56:56;100099.31;;;1.72;63.49
34081;BME280;20358;50.272;19.026;2023-02-14T08:00:03;100096.66;;;1.78;64.05
34081;BME280;20358;50.272;19.026;2023-02-14T08:03:13;100093.19;;;1.76;63.57
34081;BME280;20358;50.272;19.026;2023-02-14T08:06:20;100099.16;;;1.84;62.86
34081;BME280;20358;50.272;19.026;2023-02-14T08:09:29;100099.09;;;1.91;64.10
34081;BME280;20358;50.272;19.026;2023-02-14T08:12:36;100106.03;;;1.92;63.84
34081;BME280;20358;50.272;19.026;2023-02-14T08:15:57;100105.97;;;2.01;62.92
34081;BME280;20358;50.272;19.026;2023-02-14T08:19:11;100109.41;;;2.03;63.58
34081;BME280;20358;50.272;19.026;2023-02-14T08:22:20;100100.78;;;1.98;63.07
34081;BME280;20358;50.272;19.026;2023-02-14T08:25:29;100093.88;;;1.91;63.06
34081;BME280;20358;50.272;19.026;2023-02-14T08:28:35;100113.03;;;1.90;63.32
34081;BME280;20358;50.272;19.026;2023-02-14T08:31:42;99957.78;;;1.02;62.81
34081;BME280;20358;50.272;19.026;2023-02-14T08:34:48;100098.34;;;1.81;64.05
34081;BME280;20358;50.272;19.026;2023-02-14T08:37:54;100099.22;;;1.81;63.46
34081;BME280;20358;50.272;19.026;2023-02-14T08:41:03;100108.75;;;1.82;64.03
34081;BME280;20358;50.272;19.026;2023-02-14T08:44:11;100120.81;;;1.91;62.91
34081;BME280;20358;50.272;19.026;2023-02-14T08:47:17;100123.50;;;1.83;63.41
34081;BME280;20358;50.272;19.026;2023-02-14T08:50:23;100118.34;;;1.79;63.68
34081;BME280;20358;50.272;19.026;2023-02-14T08:53:29;100117.47;;;1.80;63.45
34081;BME280;20358;50.272;19.026;2023-02-14T08:56:38;100126.88;;;1.92;62.66
34081;BME280;20358;50.272;19.026;2023-02-14T08:59:44;100120.59;;;2.11;63.75
34081;BME280;20358;50.272;19.026;2023-02-14T09:02:51;100138.78;;;2.17;62.57
34081;BME280;20358;50.272;19.026;2023-02-14T09:06:01;100133.50;;;2.23;62.12
34081;BME280;20358;50.272;19.026;2023-02-14T09:09:08;100135.16;;;2.27;61.85
34081;BME280;20358;50.272;19.026;2023-02-14T09:12:17;100130.81;;;2.27;61.17
34081;BME280;20358;50.272;19.026;2023-02-14T09:15:23;100133.34;;;2.35;62.92
34081;BME280;20358;50.272;19.026;2023-02-14T09:18:29;100135.00;;;2.39;61.97
34081;BME280;20358;50.272;19.026;2023-02-14T09:21:36;100134.94;;;2.45;62.39
34081;BME280;20358;50.272;19.026;2023-02-14T09:24:41;100124.34;;;2.56;61.64
34081;BME280;20358;50.272;19.026;2023-02-14T09:27:51;100138.09;;;2.68;61.16
34081;BME280;20358;50.272;19.026;2023-02-14T09:30:57;100138.03;;;2.71;60.64
34081;BME280;20358;50.272;19.026;2023-02-14T09:34:03;100143.19;;;2.77;61.52
34081;BME280;20358;50.272;19.026;2023-02-14T09:37:10;100128.41;;;2.76;60.20
34081;BME280;20358;50.272;19.026;2023-02-14T09:40:18;100139.59;;;2.84;60.35
34081;BME280;20358;50.272;19.026;2023-02-14T09:43:35;100139.50;;;2.90;61.09
34081;BME280;20358;50.272;19.026;2023-02-14T09:46:53;100139.34;;;2.99;60.08
34081;BME280;20358;50.272;19.026;2023-02-14T09:50:04;100146.16;;;3.10;60.41
34081;BME280;20358;50.272;19.026;2023-02-14T09:53:21;100134.63;;;3.23;60.47
34081;BME280;20358;50.272;19.026;2023-02-14T09:56:41;100130.22;;;3.25;60.05
34081;BME280;20358;50.272;19.026;2023-02-14T10:00:10;100133.56;;;3.33;59.52
34081;BME280;20358;50.272;19.026;2023-02-14T10:07:17;100129.44;;;3.21;59.51
34081;BME280;20358;50.272;19.026;2023-02-14T10:10:37;100138.94;;;3.27;59.76
34081;BME280;20358;50.272;19.026;2023-02-14T10:13:50;100131.88;;;3.32;59.12
34081;BME280;20358;50.272;19.026;2023-02-14T10:17:11;100133.38;;;3.45;59.36
34081;BME280;20358;50.272;19.026;2023-02-14T10:20:27;100131.44;;;3.56;59.22
34081;BME280;20358;50.272;19.026;2023-02-14T10:23:41;100134.94;;;3.55;59.05
34081;BME280;20358;50.272;19.026;2023-02-14T10:27:02;100138.38;;;3.57;57.91
34081;BME280;20358;50.272;19.026;2023-02-14T10:30:16;100128.00;;;3.54;58.20
34081;BME280;20358;50.272;19.026;2023-02-14T10:33:32;100130.56;;;3.57;57.51
34081;BME280;20358;50.272;19.026;2023-02-14T10:37:01;100126.09;;;3.62;58.67
34081;BME280;20358;50.272;19.026;2023-02-14T10:40:41;100129.50;;;3.67;57.82
34081;BME280;20358;50.272;19.026;2023-02-14T10:44:18;100122.44;;;3.72;57.52
34081;BME280;20358;50.272;19.026;2023-02-14T10:47:44;100123.28;;;3.73;57.32
34081;BME280;20358;50.272;19.026;2023-02-14T10:51:11;100124.13;;;3.75;56.09
34081;BME280;20358;50.272;19.026;2023-02-14T10:54:34;100129.59;;;3.61;55.81
34081;BME280;20358;50.272;19.026;2023-02-14T10:57:47;100124.56;;;3.52;56.28
34081;BME280;20358;50.272;19.026;2023-02-14T11:01:00;100045.31;;;3.04;56.89
34081;BME280;20358;50.272;19.026;2023-02-14T11:04:11;100110.53;;;3.56;57.74
34081;BME280;20358;50.272;19.026;2023-02-14T11:07:24;100107.00;;;3.60;57.16
34081;BME280;20358;50.272;19.026;2023-02-14T11:10:33;100101.88;;;3.54;57.35
34081;BME280;20358;50.272;19.026;2023-02-14T11:13:40;100119.50;;;3.41;56.46
34081;BME280;20358;50.272;19.026;2023-02-14T11:16:46;100116.16;;;3.35;57.48
34081;BME280;20358;50.272;19.026;2023-02-14T11:19:58;100103.97;;;3.34;57.46
34081;BME280;20358;50.272;19.026;2023-02-14T11:23:22;100109.19;;;3.34;57.51
34081;BME280;20358;50.272;19.026;2023-02-14T11:26:33;100099.63;;;3.34;58.00
34081;BME280;20358;50.272;19.026;2023-02-14T11:29:43;100093.44;;;3.38;57.79
34081;BME280;20358;50.272;19.026;2023-02-14T11:32:54;100094.22;;;3.43;57.04
34081;BME280;20358;50.272;19.026;2023-02-14T11:36:03;100091.47;;;3.51;57.93
34081;BME280;20358;50.272;19.026;2023-02-14T11:39:26;100094.84;;;3.56;57.59
34081;BME280;20358;50.272;19.026;2023-02-14T11:42:40;100089.63;;;3.56;57.10
34081;BME280;20358;50.272;19.026;2023-02-14T11:46:07;100082.50;;;3.64;56.67
34081;BME280;20358;50.272;19.026;2023-02-14T11:49:25;100090.50;;;3.56;56.99
34081;BME280;20358;50.272;19.026;2023-02-14T11:52:45;100086.03;;;3.63;57.03
34081;BME280;20358;50.272;19.026;2023-02-14T11:55:58;100082.50;;;3.64;57.44
34081;BME280;20358;50.272;19.026;2023-02-14T11:59:05;100075.50;;;3.66;57.08
34081;BME280;20358;50.272;19.026;2023-02-14T12:02:21;100078.81;;;3.74;57.44
34081;BME280;20358;50.272;19.026;2023-02-14T12:05:35;100068.38;;;3.74;57.24
34081;BME280;20358;50.272;19.026;2023-02-14T12:08:49;100070.84;;;3.82;56.91
34081;BME280;20358;50.272;19.026;2023-02-14T12:12:01;100082.03;;;3.91;57.14
34081;BME280;20358;50.272;19.026;2023-02-14T12:15:27;100064.38;;;4.02;56.96
34081;BME280;20358;50.272;19.026;2023-02-14T12:18:48;100060.66;;;4.12;55.99
34081;BME280;20358;50.272;19.026;2023-02-14T12:22:03;99878.06;;;3.15;55.43
34081;BME280;20358;50.272;19.026;2023-02-14T12:25:15;100046.50;;;4.22;55.42
34081;BME280;20358;50.272;19.026;2023-02-14T12:28:33;100052.50;;;4.26;55.43
34081;BME280;20358;50.272;19.026;2023-02-14T12:31:47;99798.81;;;2.77;55.06
34081;BME280;20358;50.272;19.026;2023-02-14T12:35:14;100041.44;;;4.13;55.05
34081;BME280;20358;50.272;19.026;2023-02-14T12:38:33;100039.94;;;4.03;55.09
34081;BME280;20358;50.272;19.026;2023-02-14T12:41:55;100041.78;;;3.98;55.37
34081;BME280;20358;50.272;19.026;2023-02-14T12:45:26;100035.84;;;3.92;55.59
34081;BME280;20358;50.272;19.026;2023-02-14T12:49:06;100044.56;;;3.91;55.04
34081;BME280;20358;50.272;19.026;2023-02-14T12:52:50;100027.28;;;3.84;55.11
34081;BME280;20358;50.272;19.026;2023-02-14T12:56:29;100034.97;;;3.91;55.19
34081;BME280;20358;50.272;19.026;2023-02-14T12:59:54;100036.69;;;3.92;54.53
34081;BME280;20358;50.272;19.026;2023-02-14T13:03:43;100033.06;;;3.99;54.65
34081;BME280;20358;50.272;19.026;2023-02-14T13:07:07;100036.38;;;4.07;54.40
34081;BME280;20358;50.272;19.026;2023-02-14T13:10:39;100019.66;;;4.13;54.57
34081;BME280;20358;50.272;19.026;2023-02-14T13:14:11;100011.16;;;4.05;54.98
34081;BME280;20358;50.272;19.026;2023-02-14T13:17:39;100020.53;;;4.13;54.91
34081;BME280;20358;50.272;19.026;2023-02-14T13:20:57;100025.72;;;4.16;54.97
34081;BME280;20358;50.272;19.026;2023-02-14T13:24:15;100015.47;;;4.06;54.80
34081;BME280;20358;50.272;19.026;2023-02-14T13:27:27;100008.66;;;3.99;55.27
34081;BME280;20358;50.272;19.026;2023-02-14T13:30:37;99935.25;;;3.27;54.92
34081;BME280;20358;50.272;19.026;2023-02-14T13:33:50;100014.19;;;3.85;54.95
34081;BME280;20358;50.272;19.026;2023-02-14T13:37:06;99994.72;;;3.98;55.44
34081;BME280;20358;50.272;19.026;2023-02-14T13:40:21;100009.53;;;3.99;54.90
34081;BME280;20358;50.272;19.026;2023-02-14T13:43:46;99988.19;;;3.78;55.61
34081;BME280;20358;50.272;19.026;2023-02-14T13:46:53;100008.84;;;3.91;55.37
34081;BME280;20358;50.272;19.026;2023-02-14T13:50:01;100016.53;;;3.97;55.27
34081;BME280;20358;50.272;19.026;2023-02-14T13:53:28;100005.41;;;3.89;55.65
34081;BME280;20358;50.272;19.026;2023-02-14T13:56:35;100010.63;;;3.89;55.22
34081;BME280;20358;50.272;19.026;2023-02-14T13:59:42;100005.31;;;3.92;55.48
34081;BME280;20358;50.272;19.026;2023-02-14T14:02:49;100014.88;;;3.93;55.30
34081;BME280;20358;50.272;19.026;2023-02-14T14:06:03;100007.09;;;3.90;55.02
34081;BME280;20358;50.272;19.026;2023-02-14T14:09:52;100012.38;;;3.87;55.52
34081;BME280;20358;50.272;19.026;2023-02-14T14:13:06;100008.97;;;3.85;55.31
34081;BME280;20358;50.272;19.026;2023-02-14T14:16:19;100008.97;;;3.85;55.15
34081;BME280;20358;50.272;19.026;2023-02-14T14:19:37;100012.44;;;3.84;55.41
34081;BME280;20358;50.272;19.026;2023-02-14T14:22:47;100011.56;;;3.85;55.14
34081;BME280;20358;50.272;19.026;2023-02-14T14:25:59;100011.34;;;3.96;55.88
34081;BME280;20358;50.272;19.026;2023-02-14T14:29:16;100008.50;;;4.06;55.50
34081;BME280;20358;50.272;19.026;2023-02-14T14:32:28;100011.94;;;4.08;55.22
34081;BME280;20358;50.272;19.026;2023-02-14T14:35:36;100011.88;;;4.11;55.47
34081;BME280;20358;50.272;19.026;2023-02-14T14:38:46;100014.63;;;4.05;54.51
34081;BME280;20358;50.272;19.026;2023-02-14T14:42:05;100005.13;;;4.01;55.17
34081;BME280;20358;50.272;19.026;2023-02-14T14:45:21;100018.22;;;4.00;54.94
34081;BME280;20358;50.272;19.026;2023-02-14T14:48:34;100011.34;;;3.96;54.72
34081;BME280;20358;50.272;19.026;2023-02-14T14:51:45;100016.69;;;3.91;54.80
34081;BME280;20358;50.272;19.026;2023-02-14T14:54:50;100006.34;;;3.87;55.17
34081;BME280;20358;50.272;19.026;2023-02-14T14:58:02;100007.78;;;3.57;56.30
34081;BME280;20358;50.272;19.026;2023-02-14T15:01:13;99999.47;;;3.37;57.28
34081;BME280;20358;50.272;19.026;2023-02-14T15:04:34;100001.94;;;3.44;56.57
34081;BME280;20358;50.272;19.026;2023-02-14T15:07:40;100004.50;;;3.46;57.23
34081;BME280;20358;50.272;19.026;2023-02-14T15:10:51;99995.13;;;3.36;57.04
34081;BME280;20358;50.272;19.026;2023-02-14T15:14:04;99994.25;;;3.37;56.81
34081;BME280;20358;50.272;19.026;2023-02-14T15:17:17;99996.13;;;3.29;57.47
34081;BME280;20358;50.272;19.026;2023-02-14T15:20:25;100006.63;;;3.26;57.00
34081;BME280;20358;50.272;19.026;2023-02-14T15:23:31;100003.16;;;3.27;57.41
34081;BME280;20358;50.272;19.026;2023-02-14T15:26:37;100005.72;;;3.28;57.51
34081;BME280;20358;50.272;19.026;2023-02-14T15:29:56;100008.28;;;3.30;57.32
34081;BME280;20358;50.272;19.026;2023-02-14T15:33:05;100003.88;;;3.33;57.53
34081;BME280;20358;50.272;19.026;2023-02-14T15:36:18;100001.31;;;3.32;57.31
34081;BME280;20358;50.272;19.026;2023-02-14T15:39:32;100010.84;;;3.34;57.68
34081;BME280;20358;50.272;19.026;2023-02-14T15:42:43;100003.97;;;3.27;56.79
34081;BME280;20358;50.272;19.026;2023-02-14T15:45:55;100004.75;;;3.34;57.27
34081;BME280;20358;50.272;19.026;2023-02-14T15:49:09;100020.41;;;3.34;56.77
34081;BME280;20358;50.272;19.026;2023-02-14T15:52:19;100022.16;;;3.35;58.13
34081;BME280;20358;50.272;19.026;2023-02-14T15:55:26;100017.00;;;3.30;56.94
34081;BME280;20358;50.272;19.026;2023-02-14T15:58:33;100024.03;;;3.27;57.28
34081;BME280;20358;50.272;19.026;2023-02-14T16:01:49;100022.31;;;3.26;56.76
34081;BME280;20358;50.272;19.026;2023-02-14T16:05:03;100016.25;;;3.22;57.65
34081;BME280;20358;50.272;19.026;2023-02-14T16:08:26;100025.75;;;3.28;56.77
34081;BME280;20358;50.272;19.026;2023-02-14T16:11:36;100024.03;;;3.27;57.16
34081;BME280;20358;50.272;19.026;2023-02-14T16:14:43;100029.25;;;3.27;57.23
34081;BME280;20358;50.272;19.026;2023-02-14T16:17:52;100035.34;;;3.26;56.82
34081;BME280;20358;50.272;19.026;2023-02-14T16:21:13;100024.97;;;3.23;57.81
34081;BME280;20358;50.272;19.026;2023-02-14T16:24:21;100037.09;;;3.27;57.91
34081;BME280;20358;50.272;19.026;2023-02-14T16:27:27;100037.06;;;3.28;57.13
34081;BME280;20358;50.272;19.026;2023-02-14T16:30:32;100038.75;;;3.31;58.20
34081;BME280;20358;50.272;19.026;2023-02-14T16:33:41;100041.31;;;3.34;57.67
34081;BME280;20358;50.272;19.026;2023-02-14T16:36:47;100042.06;;;3.39;57.85
34081;BME280;20358;50.272;19.026;2023-02-14T16:39:54;100042.81;;;3.47;57.10
34081;BME280;20358;50.272;19.026;2023-02-14T16:43:00;100049.81;;;3.45;56.66
34081;BME280;20358;50.272;19.026;2023-02-14T16:46:10;100051.56;;;3.43;56.73
34081;BME280;20358;50.272;19.026;2023-02-14T16:49:19;100052.47;;;3.40;57.58
34081;BME280;20358;50.272;19.026;2023-02-14T16:52:27;100049.91;;;3.39;56.95
34081;BME280;20358;50.272;19.026;2023-02-14T16:55:33;100051.75;;;3.34;57.36